sensor_id;sensor_type;location;lat;lon;timestamp;P1;durP1;ratioP1;P2;durP2;ratioP2
76256;SDS011;65074;50.436;8.672;2023-05-31T00:00:39;4.88;;;3.10;;
76256;SDS011;65074;50.436;8.672;2023-05-31T00:03:06;6.95;;;3.10;;
76256;SDS011;65074;50.436;8.672;2023-05-31T00:05:31;5.85;;;2.92;;
76256;SDS011;65074;50.436;8.672;2023-05-31T00:07:57;4.28;;;3.08;;
76256;SDS011;65074;50.436;8.672;2023-05-31T00:10:22;5.78;;;3.20;;
76256;SDS011;65074;50.436;8.672;2023-05-31T00:12:47;9.48;;;3.65;;
76256;SDS011;65074;50.436;8.672;2023-05-31T00:15:13;5.25;;;3.03;;
76256;SDS011;65074;50.436;8.672;2023-05-31T00:17:38;7.13;;;2.70;;
76256;SDS011;65074;50.436;8.672;2023-05-31T00:20:03;8.75;;;3.22;;
76256;SDS011;65074;50.436;8.672;2023-05-31T00:22:29;7.07;;;3.45;;
76256;SDS011;65074;50.436;8.672;2023-05-31T00:24:54;7.28;;;3.35;;
76256;SDS011;65074;50.436;8.672;2023-05-31T00:27:20;7.65;;;3.08;;
76256;SDS011;65074;50.436;8.672;2023-05-31T00:29:45;6.70;;;2.83;;
76256;SDS011;65074;50.436;8.672;2023-05-31T00:32:11;7.40;;;3.38;;
76256;SDS011;65074;50.436;8.672;2023-05-31T00:34:36;8.95;;;3.67;;
76256;SDS011;65074;50.436;8.672;2023-05-31T00:37:01;5.63;;;3.25;;
76256;SDS011;65074;50.436;8.672;2023-05-31T00:39:27;10.80;;;4.28;;
76256;SDS011;65074;50.436;8.672;2023-05-31T00:41:52;5.72;;;3.00;;
76256;SDS011;65074;50.436;8.672;2023-05-31T00:44:18;6.80;;;3.90;;
76256;SDS011;65074;50.436;8.672;2023-05-31T00:46:43;5.88;;;3.53;;
76256;SDS011;65074;50.436;8.672;2023-05-31T00:49:09;10.05;;;3.90;;
76256;SDS011;65074;50.436;8.672;2023-05-31T00:51:34;8.98;;;3.90;;
76256;SDS011;65074;50.436;8.672;2023-05-31T00:54:01;8.60;;;3.80;;
76256;SDS011;65074;50.436;8.672;2023-05-31T00:56:27;13.00;;;3.75;;
76256;SDS011;65074;50.436;8.672;2023-05-31T00:58:56;8.68;;;3.67;;
76256;SDS011;65074;50.436;8.672;2023-05-31T01:01:23;6.85;;;3.78;;
76256;SDS011;65074;50.436;8.672;2023-05-31T01:03:55;7.47;;;3.95;;
76256;SDS011;65074;50.436;8.672;2023-05-31T01:06:22;8.55;;;3.70;;
76256;SDS011;65074;50.436;8.672;2023-05-31T01:08:50;8.90;;;3.65;;
76256;SDS011;65074;50.436;8.672;2023-05-31T01:11:40;7.78;;;3.50;;
76256;SDS011;65074;50.436;8.672;2023-05-31T01:14:27;8.93;;;4.03;;
76256;SDS011;65074;50.436;8.672;2023-05-31T01:17:04;8.38;;;3.80;;
76256;SDS011;65074;50.436;8.672;2023-05-31T01:19:45;7.68;;;3.90;;
76256;SDS011;65074;50.436;8.672;2023-05-31T01:24:52;5.93;;;3.20;;
76256;SDS011;65074;50.436;8.672;2023-05-31T01:29:56;6.35;;;3.70;;
76256;SDS011;65074;50.436;8.672;2023-05-31T01:32:24;10.98;;;4.18;;
76256;SDS011;65074;50.436;8.672;2023-05-31T01:34:51;8.80;;;3.67;;
76256;SDS011;65074;50.436;8.672;2023-05-31T01:37:16;9.00;;;4.00;;
76256;SDS011;65074;50.436;8.672;2023-05-31T01:39:41;7.65;;;3.72;;
76256;SDS011;65074;50.436;8.672;2023-05-31T01:42:08;6.65;;;3.30;;
76256;SDS011;65074;50.436;8.672;2023-05-31T01:44:34;6.65;;;3.60;;
76256;SDS011;65074;50.436;8.672;2023-05-31T01:47:05;8.10;;;3.78;;
76256;SDS011;65074;50.436;8.672;2023-05-31T01:49:32;7.50;;;3.65;;
76256;SDS011;65074;50.436;8.672;2023-05-31T01:52:00;8.45;;;3.47;;
76256;SDS011;65074;50.436;8.672;2023-05-31T01:54:28;8.07;;;3.80;;
76256;SDS011;65074;50.436;8.672;2023-05-31T01:56:54;8.82;;;3.63;;
76256;SDS011;65074;50.436;8.672;2023-05-31T01:59:19;9.10;;;4.25;;
76256;SDS011;65074;50.436;8.672;2023-05-31T02:01:46;8.95;;;4.07;;
76256;SDS011;65074;50.436;8.672;2023-05-31T02:04:12;5.90;;;3.83;;
76256;SDS011;65074;50.436;8.672;2023-05-31T02:06:37;6.15;;;3.38;;
76256;SDS011;65074;50.436;8.672;2023-05-31T02:09:03;6.97;;;3.92;;
76256;SDS011;65074;50.436;8.672;2023-05-31T02:11:30;9.05;;;4.22;;
76256;SDS011;65074;50.436;8.672;2023-05-31T02:13:56;10.45;;;4.65;;
76256;SDS011;65074;50.436;8.672;2023-05-31T02:16:21;8.35;;;4.10;;
76256;SDS011;65074;50.436;8.672;2023-05-31T02:18:47;8.75;;;5.00;;
76256;SDS011;65074;50.436;8.672;2023-05-31T02:21:12;9.60;;;4.72;;
76256;SDS011;65074;50.436;8.672;2023-05-31T02:23:38;9.20;;;4.30;;
76256;SDS011;65074;50.436;8.672;2023-05-31T02:26:03;7.63;;;4.25;;
76256;SDS011;65074;50.436;8.672;2023-05-31T02:28:30;6.90;;;4.20;;
76256;SDS011;65074;50.436;8.672;2023-05-31T02:30:59;7.22;;;4.40;;
76256;SDS011;65074;50.436;8.672;2023-05-31T02:33:25;7.68;;;3.85;;
76256;SDS011;65074;50.436;8.672;2023-05-31T02:35:51;7.93;;;4.05;;
76256;SDS011;65074;50.436;8.672;2023-05-31T02:38:18;8.05;;;4.15;;
76256;SDS011;65074;50.436;8.672;2023-05-31T02:40:45;11.25;;;4.30;;
76256;SDS011;65074;50.436;8.672;2023-05-31T02:43:10;7.72;;;3.67;;
76256;SDS011;65074;50.436;8.672;2023-05-31T02:45:37;8.02;;;3.85;;
76256;SDS011;65074;50.436;8.672;2023-05-31T02:48:02;11.75;;;4.10;;
76256;SDS011;65074;50.436;8.672;2023-05-31T02:50:30;8.85;;;4.38;;
76256;SDS011;65074;50.436;8.672;2023-05-31T02:52:57;8.15;;;3.90;;
76256;SDS011;65074;50.436;8.672;2023-05-31T02:58:21;9.00;;;3.65;;
76256;SDS011;65074;50.436;8.672;2023-05-31T03:01:05;14.57;;;4.57;;
76256;SDS011;65074;50.436;8.672;2023-05-31T03:03:33;9.57;;;4.28;;
76256;SDS011;65074;50.436;8.672;2023-05-31T03:06:04;10.02;;;4.22;;
76256;SDS011;65074;50.436;8.672;2023-05-31T03:08:30;8.70;;;4.45;;
76256;SDS011;65074;50.436;8.672;2023-05-31T03:10:56;12.20;;;4.68;;
76256;SDS011;65074;50.436;8.672;2023-05-31T03:13:21;10.52;;;4.80;;
76256;SDS011;65074;50.436;8.672;2023-05-31T03:15:47;6.45;;;4.22;;
76256;SDS011;65074;50.436;8.672;2023-05-31T03:18:13;9.75;;;4.85;;
76256;SDS011;65074;50.436;8.672;2023-05-31T03:20:41;9.48;;;4.40;;
76256;SDS011;65074;50.436;8.672;2023-05-31T03:23:06;11.00;;;4.47;;
76256;SDS011;65074;50.436;8.672;2023-05-31T03:25:33;8.25;;;4.03;;
76256;SDS011;65074;50.436;8.672;2023-05-31T03:27:58;7.93;;;3.88;;
76256;SDS011;65074;50.436;8.672;2023-05-31T03:30:24;8.93;;;4.45;;
76256;SDS011;65074;50.436;8.672;2023-05-31T03:32:56;12.60;;;4.43;;
76256;SDS011;65074;50.436;8.672;2023-05-31T03:35:22;9.65;;;4.30;;
76256;SDS011;65074;50.436;8.672;2023-05-31T03:37:48;9.00;;;4.00;;
76256;SDS011;65074;50.436;8.672;2023-05-31T03:40:13;8.68;;;4.45;;
76256;SDS011;65074;50.436;8.672;2023-05-31T03:42:39;11.95;;;4.45;;
76256;SDS011;65074;50.436;8.672;2023-05-31T03:45:06;9.60;;;4.63;;
76256;SDS011;65074;50.436;8.672;2023-05-31T03:47:32;8.73;;;4.97;;
76256;SDS011;65074;50.436;8.672;2023-05-31T03:49:58;10.52;;;4.70;;
76256;SDS011;65074;50.436;8.672;2023-05-31T03:52:24;8.20;;;4.38;;
76256;SDS011;65074;50.436;8.672;2023-05-31T03:54:49;12.10;;;4.97;;
76256;SDS011;65074;50.436;8.672;2023-05-31T03:57:15;10.48;;;4.97;;
76256;SDS011;65074;50.436;8.672;2023-05-31T03:59:40;7.03;;;4.38;;
76256;SDS011;65074;50.436;8.672;2023-05-31T04:02:05;10.35;;;4.82;;
76256;SDS011;65074;50.436;8.672;2023-05-31T04:04:31;8.30;;;4.55;;
76256;SDS011;65074;50.436;8.672;2023-05-31T04:06:56;9.48;;;4.68;;
76256;SDS011;65074;50.436;8.672;2023-05-31T04:09:21;10.73;;;3.95;;
76256;SDS011;65074;50.436;8.672;2023-05-31T04:11:49;9.52;;;4.63;;
76256;SDS011;65074;50.436;8.672;2023-05-31T04:14:14;12.50;;;4.63;;
76256;SDS011;65074;50.436;8.672;2023-05-31T04:16:40;7.90;;;4.32;;
76256;SDS011;65074;50.436;8.672;2023-05-31T04:19:05;11.90;;;4.38;;
76256;SDS011;65074;50.436;8.672;2023-05-31T04:21:31;8.10;;;4.80;;
76256;SDS011;65074;50.436;8.672;2023-05-31T04:23:59;11.15;;;4.20;;
76256;SDS011;65074;50.436;8.672;2023-05-31T04:26:25;7.65;;;4.03;;
76256;SDS011;65074;50.436;8.672;2023-05-31T04:28:52;12.35;;;4.50;;
76256;SDS011;65074;50.436;8.672;2023-05-31T04:31:20;9.77;;;5.07;;
76256;SDS011;65074;50.436;8.672;2023-05-31T04:33:55;10.65;;;4.10;;
76256;SDS011;65074;50.436;8.672;2023-05-31T04:36:26;8.98;;;4.22;;
76256;SDS011;65074;50.436;8.672;2023-05-31T04:38:52;9.30;;;4.55;;
76256;SDS011;65074;50.436;8.672;2023-05-31T04:41:24;6.57;;;4.30;;
76256;SDS011;65074;50.436;8.672;2023-05-31T04:43:52;6.88;;;3.83;;
76256;SDS011;65074;50.436;8.672;2023-05-31T04:46:19;7.95;;;4.55;;
76256;SDS011;65074;50.436;8.672;2023-05-31T04:48:48;10.38;;;4.55;;
76256;SDS011;65074;50.436;8.672;2023-05-31T04:51:16;11.50;;;5.00;;
76256;SDS011;65074;50.436;8.672;2023-05-31T04:53:43;8.50;;;3.78;;
76256;SDS011;65074;50.436;8.672;2023-05-31T04:56:09;8.13;;;4.43;;
76256;SDS011;65074;50.436;8.672;2023-05-31T04:58:36;12.95;;;4.75;;
76256;SDS011;65074;50.436;8.672;2023-05-31T05:01:01;7.25;;;3.97;;
76256;SDS011;65074;50.436;8.672;2023-05-31T05:03:34;9.35;;;4.30;;
76256;SDS011;65074;50.436;8.672;2023-05-31T05:06:00;9.98;;;3.78;;
76256;SDS011;65074;50.436;8.672;2023-05-31T05:08:36;6.28;;;3.92;;
76256;SDS011;65074;50.436;8.672;2023-05-31T05:11:01;10.45;;;4.38;;
76256;SDS011;65074;50.436;8.672;2023-05-31T05:13:27;7.90;;;4.28;;
76256;SDS011;65074;50.436;8.672;2023-05-31T05:15:53;9.40;;;4.47;;
76256;SDS011;65074;50.436;8.672;2023-05-31T05:18:19;9.40;;;3.67;;
76256;SDS011;65074;50.436;8.672;2023-05-31T05:20:45;8.43;;;3.80;;
76256;SDS011;65074;50.436;8.672;2023-05-31T05:23:12;12.13;;;4.35;;
76256;SDS011;65074;50.436;8.672;2023-05-31T05:25:38;9.38;;;4.18;;
76256;SDS011;65074;50.436;8.672;2023-05-31T05:28:03;7.63;;;3.80;;
76256;SDS011;65074;50.436;8.672;2023-05-31T05:30:29;7.32;;;3.58;;
76256;SDS011;65074;50.436;8.672;2023-05-31T05:32:54;7.95;;;4.40;;
76256;SDS011;65074;50.436;8.672;2023-05-31T05:35:21;6.88;;;4.28;;
76256;SDS011;65074;50.436;8.672;2023-05-31T05:37:46;7.22;;;3.60;;
76256;SDS011;65074;50.436;8.672;2023-05-31T05:40:12;8.30;;;4.53;;
76256;SDS011;65074;50.436;8.672;2023-05-31T05:42:39;8.27;;;4.53;;
76256;SDS011;65074;50.436;8.672;2023-05-31T05:45:04;8.05;;;3.90;;
76256;SDS011;65074;50.436;8.672;2023-05-31T05:47:35;12.68;;;3.47;;
76256;SDS011;65074;50.436;8.672;2023-05-31T05:50:02;7.30;;;3.72;;
76256;SDS011;65074;50.436;8.672;2023-05-31T05:52:29;9.40;;;4.10;;
76256;SDS011;65074;50.436;8.672;2023-05-31T05:54:55;5.57;;;3.47;;
76256;SDS011;65074;50.436;8.672;2023-05-31T05:57:21;6.53;;;3.63;;
76256;SDS011;65074;50.436;8.672;2023-05-31T05:59:48;8.27;;;4.38;;
76256;SDS011;65074;50.436;8.672;2023-05-31T06:02:18;8.82;;;4.32;;
76256;SDS011;65074;50.436;8.672;2023-05-31T06:04:46;7.35;;;3.80;;
76256;SDS011;65074;50.436;8.672;2023-05-31T06:07:11;7.15;;;3.83;;
76256;SDS011;65074;50.436;8.672;2023-05-31T06:09:36;6.30;;;3.40;;
76256;SDS011;65074;50.436;8.672;2023-05-31T06:12:02;6.80;;;3.58;;
76256;SDS011;65074;50.436;8.672;2023-05-31T06:14:31;7.32;;;3.53;;
76256;SDS011;65074;50.436;8.672;2023-05-31T06:16:57;8.38;;;3.75;;
76256;SDS011;65074;50.436;8.672;2023-05-31T06:19:23;6.75;;;3.42;;
76256;SDS011;65074;50.436;8.672;2023-05-31T06:21:48;6.75;;;3.40;;
76256;SDS011;65074;50.436;8.672;2023-05-31T06:24:15;9.82;;;3.13;;
76256;SDS011;65074;50.436;8.672;2023-05-31T06:26:40;8.75;;;3.30;;
76256;SDS011;65074;50.436;8.672;2023-05-31T06:29:06;5.85;;;2.45;;
76256;SDS011;65074;50.436;8.672;2023-05-31T06:31:57;5.10;;;2.40;;
76256;SDS011;65074;50.436;8.672;2023-05-31T06:34:25;6.32;;;2.35;;
76256;SDS011;65074;50.436;8.672;2023-05-31T06:36:52;5.30;;;2.40;;
76256;SDS011;65074;50.436;8.672;2023-05-31T06:39:18;4.50;;;2.28;;
76256;SDS011;65074;50.436;8.672;2023-05-31T06:41:43;6.90;;;3.83;;
76256;SDS011;65074;50.436;8.672;2023-05-31T06:44:44;4.00;;;2.13;;
76256;SDS011;65074;50.436;8.672;2023-05-31T06:47:18;5.47;;;2.55;;
76256;SDS011;65074;50.436;8.672;2023-05-31T06:50:03;10.18;;;2.60;;
76256;SDS011;65074;50.436;8.672;2023-05-31T06:52:46;4.88;;;2.00;;
76256;SDS011;65074;50.436;8.672;2023-05-31T06:55:34;5.50;;;1.90;;
76256;SDS011;65074;50.436;8.672;2023-05-31T06:58:00;3.58;;;2.10;;
76256;SDS011;65074;50.436;8.672;2023-05-31T07:00:28;4.20;;;2.00;;
76256;SDS011;65074;50.436;8.672;2023-05-31T07:02:54;7.90;;;2.30;;
76256;SDS011;65074;50.436;8.672;2023-05-31T07:05:19;3.25;;;1.92;;
76256;SDS011;65074;50.436;8.672;2023-05-31T07:07:46;4.05;;;2.13;;
76256;SDS011;65074;50.436;8.672;2023-05-31T07:10:12;4.50;;;1.80;;
76256;SDS011;65074;50.436;8.672;2023-05-31T07:12:38;5.22;;;2.80;;
76256;SDS011;65074;50.436;8.672;2023-05-31T07:15:03;5.13;;;2.20;;
76256;SDS011;65074;50.436;8.672;2023-05-31T07:17:29;8.98;;;2.53;;
76256;SDS011;65074;50.436;8.672;2023-05-31T07:19:56;5.18;;;2.17;;
76256;SDS011;65074;50.436;8.672;2023-05-31T07:22:21;4.00;;;2.08;;
76256;SDS011;65074;50.436;8.672;2023-05-31T07:24:47;3.42;;;2.00;;
76256;SDS011;65074;50.436;8.672;2023-05-31T07:27:13;4.03;;;2.20;;
76256;SDS011;65074;50.436;8.672;2023-05-31T07:29:38;4.20;;;2.08;;
76256;SDS011;65074;50.436;8.672;2023-05-31T07:32:03;4.20;;;2.38;;
76256;SDS011;65074;50.436;8.672;2023-05-31T07:34:29;2.88;;;1.90;;
76256;SDS011;65074;50.436;8.672;2023-05-31T07:36:54;7.38;;;3.90;;
76256;SDS011;65074;50.436;8.672;2023-05-31T07:39:23;5.18;;;2.63;;
76256;SDS011;65074;50.436;8.672;2023-05-31T07:41:49;6.03;;;2.95;;
76256;SDS011;65074;50.436;8.672;2023-05-31T07:44:14;4.05;;;2.38;;
76256;SDS011;65074;50.436;8.672;2023-05-31T07:46:43;6.40;;;2.00;;
76256;SDS011;65074;50.436;8.672;2023-05-31T07:49:09;4.82;;;2.15;;
76256;SDS011;65074;50.436;8.672;2023-05-31T07:51:34;5.30;;;2.40;;
76256;SDS011;65074;50.436;8.672;2023-05-31T07:54:01;5.80;;;2.05;;
76256;SDS011;65074;50.436;8.672;2023-05-31T07:56:27;2.97;;;2.03;;
76256;SDS011;65074;50.436;8.672;2023-05-31T07:58:52;4.80;;;2.28;;
76256;SDS011;65074;50.436;8.672;2023-05-31T08:01:18;5.72;;;1.88;;
76256;SDS011;65074;50.436;8.672;2023-05-31T08:03:43;4.22;;;1.83;;
76256;SDS011;65074;50.436;8.672;2023-05-31T08:06:08;3.20;;;1.55;;
76256;SDS011;65074;50.436;8.672;2023-05-31T08:08:34;4.45;;;1.88;;
76256;SDS011;65074;50.436;8.672;2023-05-31T08:11:00;3.58;;;1.70;;
76256;SDS011;65074;50.436;8.672;2023-05-31T08:13:26;5.50;;;1.90;;
76256;SDS011;65074;50.436;8.672;2023-05-31T08:15:52;3.58;;;2.08;;
76256;SDS011;65074;50.436;8.672;2023-05-31T08:18:17;4.07;;;1.98;;
76256;SDS011;65074;50.436;8.672;2023-05-31T08:20:43;3.70;;;2.15;;
76256;SDS011;65074;50.436;8.672;2023-05-31T08:23:09;3.85;;;1.90;;
76256;SDS011;65074;50.436;8.672;2023-05-31T08:25:42;4.10;;;2.10;;
76256;SDS011;65074;50.436;8.672;2023-05-31T08:28:07;5.60;;;2.00;;
76256;SDS011;65074;50.436;8.672;2023-05-31T08:30:32;2.60;;;1.60;;
76256;SDS011;65074;50.436;8.672;2023-05-31T08:32:58;4.57;;;2.25;;
76256;SDS011;65074;50.436;8.672;2023-05-31T08:35:23;3.67;;;1.83;;
76256;SDS011;65074;50.436;8.672;2023-05-31T08:37:48;4.38;;;1.52;;
76256;SDS011;65074;50.436;8.672;2023-05-31T08:40:14;1.98;;;1.65;;
76256;SDS011;65074;50.436;8.672;2023-05-31T08:42:40;3.40;;;1.83;;
76256;SDS011;65074;50.436;8.672;2023-05-31T08:45:12;4.60;;;1.95;;
76256;SDS011;65074;50.436;8.672;2023-05-31T08:47:45;3.85;;;1.75;;
76256;SDS011;65074;50.436;8.672;2023-05-31T08:50:16;3.38;;;1.40;;
76256;SDS011;65074;50.436;8.672;2023-05-31T08:52:42;4.95;;;1.80;;
76256;SDS011;65074;50.436;8.672;2023-05-31T08:55:10;3.63;;;1.90;;
76256;SDS011;65074;50.436;8.672;2023-05-31T08:57:36;4.25;;;1.92;;
76256;SDS011;65074;50.436;8.672;2023-05-31T09:00:03;3.20;;;1.85;;
76256;SDS011;65074;50.436;8.672;2023-05-31T09:02:35;4.75;;;1.95;;
76256;SDS011;65074;50.436;8.672;2023-05-31T09:05:01;2.58;;;1.70;;
76256;SDS011;65074;50.436;8.672;2023-05-31T09:07:27;3.60;;;1.58;;
76256;SDS011;65074;50.436;8.672;2023-05-31T09:09:52;4.32;;;1.70;;
76256;SDS011;65074;50.436;8.672;2023-05-31T09:12:18;3.70;;;2.33;;
76256;SDS011;65074;50.436;8.672;2023-05-31T09:14:43;4.50;;;2.53;;
76256;SDS011;65074;50.436;8.672;2023-05-31T09:17:08;3.67;;;1.60;;
76256;SDS011;65074;50.436;8.672;2023-05-31T09:19:34;5.93;;;1.70;;
76256;SDS011;65074;50.436;8.672;2023-05-31T09:22:05;3.05;;;1.98;;
76256;SDS011;65074;50.436;8.672;2023-05-31T09:24:31;4.72;;;1.50;;
76256;SDS011;65074;50.436;8.672;2023-05-31T09:26:56;4.95;;;1.67;;
76256;SDS011;65074;50.436;8.672;2023-05-31T09:29:21;2.65;;;1.80;;
76256;SDS011;65074;50.436;8.672;2023-05-31T09:31:47;2.58;;;1.30;;
76256;SDS011;65074;50.436;8.672;2023-05-31T09:34:46;3.25;;;1.50;;
76256;SDS011;65074;50.436;8.672;2023-05-31T09:37:05;4.82;;;1.70;;
76256;SDS011;65074;50.436;8.672;2023-05-31T09:39:30;5.10;;;1.77;;
76256;SDS011;65074;50.436;8.672;2023-05-31T09:41:56;3.53;;;1.67;;
76256;SDS011;65074;50.436;8.672;2023-05-31T09:44:27;2.53;;;1.67;;
76256;SDS011;65074;50.436;8.672;2023-05-31T09:46:53;5.03;;;1.38;;
76256;SDS011;65074;50.436;8.672;2023-05-31T09:49:19;3.53;;;1.60;;
76256;SDS011;65074;50.436;8.672;2023-05-31T09:51:51;4.13;;;1.27;;
76256;SDS011;65074;50.436;8.672;2023-05-31T09:56:50;6.20;;;1.85;;
76256;SDS011;65074;50.436;8.672;2023-05-31T09:59:16;3.28;;;1.40;;
76256;SDS011;65074;50.436;8.672;2023-05-31T10:01:42;2.60;;;1.52;;
76256;SDS011;65074;50.436;8.672;2023-05-31T10:04:09;2.28;;;1.48;;
76256;SDS011;65074;50.436;8.672;2023-05-31T10:06:35;2.45;;;1.65;;
76256;SDS011;65074;50.436;8.672;2023-05-31T10:09:07;2.47;;;1.63;;
76256;SDS011;65074;50.436;8.672;2023-05-31T10:11:36;2.90;;;1.63;;
76256;SDS011;65074;50.436;8.672;2023-05-31T10:14:03;3.28;;;1.38;;
76256;SDS011;65074;50.436;8.672;2023-05-31T10:16:42;2.63;;;1.40;;
76256;SDS011;65074;50.436;8.672;2023-05-31T10:19:11;4.82;;;1.63;;
76256;SDS011;65074;50.436;8.672;2023-05-31T10:21:41;2.47;;;1.33;;
76256;SDS011;65074;50.436;8.672;2023-05-31T10:24:09;4.18;;;1.58;;
76256;SDS011;65074;50.436;8.672;2023-05-31T10:30:02;3.22;;;1.52;;
76256;SDS011;65074;50.436;8.672;2023-05-31T10:32:32;2.28;;;1.27;;
76256;SDS011;65074;50.436;8.672;2023-05-31T10:34:59;2.55;;;1.10;;
76256;SDS011;65074;50.436;8.672;2023-05-31T10:37:26;1.90;;;1.20;;
76256;SDS011;65074;50.436;8.672;2023-05-31T10:40:03;1.83;;;1.30;;
76256;SDS011;65074;50.436;8.672;2023-05-31T10:42:40;3.25;;;1.48;;
76256;SDS011;65074;50.436;8.672;2023-05-31T10:45:21;1.63;;;1.40;;
76256;SDS011;65074;50.436;8.672;2023-05-31T10:50:34;3.45;;;1.40;;
76256;SDS011;65074;50.436;8.672;2023-05-31T10:53:12;3.08;;;1.55;;
76256;SDS011;65074;50.436;8.672;2023-05-31T10:55:41;3.17;;;1.67;;
76256;SDS011;65074;50.436;8.672;2023-05-31T10:58:07;1.70;;;1.30;;
76256;SDS011;65074;50.436;8.672;2023-05-31T11:00:51;2.75;;;1.63;;
76256;SDS011;65074;50.436;8.672;2023-05-31T11:05:55;6.90;;;1.80;;
76256;SDS011;65074;50.436;8.672;2023-05-31T11:08:22;5.72;;;1.73;;
76256;SDS011;65074;50.436;8.672;2023-05-31T11:10:48;3.40;;;1.45;;
76256;SDS011;65074;50.436;8.672;2023-05-31T11:13:13;3.67;;;1.90;;
76256;SDS011;65074;50.436;8.672;2023-05-31T11:15:43;2.05;;;1.40;;
76256;SDS011;65074;50.436;8.672;2023-05-31T11:18:22;2.50;;;1.40;;
76256;SDS011;65074;50.436;8.672;2023-05-31T11:20:48;6.07;;;1.70;;
76256;SDS011;65074;50.436;8.672;2023-05-31T11:25:42;2.25;;;1.40;;
76256;SDS011;65074;50.436;8.672;2023-05-31T11:28:07;3.42;;;1.40;;
76256;SDS011;65074;50.436;8.672;2023-05-31T11:30:36;4.15;;;1.48;;
76256;SDS011;65074;50.436;8.672;2023-05-31T11:33:02;2.20;;;1.23;;
76256;SDS011;65074;50.436;8.672;2023-05-31T11:35:38;5.50;;;1.67;;
76256;SDS011;65074;50.436;8.672;2023-05-31T11:38:04;4.70;;;1.52;;
76256;SDS011;65074;50.436;8.672;2023-05-31T11:40:30;1.77;;;1.40;;
76256;SDS011;65074;50.436;8.672;2023-05-31T11:43:02;3.28;;;1.50;;
76256;SDS011;65074;50.436;8.672;2023-05-31T11:45:29;2.83;;;2.20;;
76256;SDS011;65074;50.436;8.672;2023-05-31T11:50:33;2.75;;;1.52;;
76256;SDS011;65074;50.436;8.672;2023-05-31T11:53:02;4.95;;;1.95;;
76256;SDS011;65074;50.436;8.672;2023-05-31T11:55:31;2.22;;;1.40;;
76256;SDS011;65074;50.436;8.672;2023-05-31T11:57:58;2.28;;;1.67;;
76256;SDS011;65074;50.436;8.672;2023-05-31T12:00:24;6.22;;;2.05;;
76256;SDS011;65074;50.436;8.672;2023-05-31T12:02:53;3.80;;;1.50;;
76256;SDS011;65074;50.436;8.672;2023-05-31T12:05:21;3.95;;;1.80;;
76256;SDS011;65074;50.436;8.672;2023-05-31T12:07:47;4.25;;;1.67;;
76256;SDS011;65074;50.436;8.672;2023-05-31T12:10:16;3.55;;;1.52;;
76256;SDS011;65074;50.436;8.672;2023-05-31T12:12:42;2.63;;;1.40;;
76256;SDS011;65074;50.436;8.672;2023-05-31T12:15:10;5.65;;;1.65;;
76256;SDS011;65074;50.436;8.672;2023-05-31T12:17:38;2.63;;;1.80;;
76256;SDS011;65074;50.436;8.672;2023-05-31T12:20:07;2.00;;;1.77;;
76256;SDS011;65074;50.436;8.672;2023-05-31T12:22:33;3.25;;;1.52;;
76256;SDS011;65074;50.436;8.672;2023-05-31T12:24:59;3.75;;;1.90;;
76256;SDS011;65074;50.436;8.672;2023-05-31T12:27:26;2.60;;;1.60;;
76256;SDS011;65074;50.436;8.672;2023-05-31T12:29:56;2.17;;;1.63;;
76256;SDS011;65074;50.436;8.672;2023-05-31T12:32:22;2.53;;;1.60;;
76256;SDS011;65074;50.436;8.672;2023-05-31T12:34:53;3.78;;;2.05;;
76256;SDS011;65074;50.436;8.672;2023-05-31T12:37:28;3.15;;;1.58;;
76256;SDS011;65074;50.436;8.672;2023-05-31T12:40:09;3.63;;;1.85;;
76256;SDS011;65074;50.436;8.672;2023-05-31T12:42:41;2.63;;;2.15;;
76256;SDS011;65074;50.436;8.672;2023-05-31T12:45:07;2.45;;;2.03;;
76256;SDS011;65074;50.436;8.672;2023-05-31T12:47:34;4.50;;;1.60;;
76256;SDS011;65074;50.436;8.672;2023-05-31T12:50:03;2.55;;;2.00;;
76256;SDS011;65074;50.436;8.672;2023-05-31T12:52:34;4.03;;;1.70;;
76256;SDS011;65074;50.436;8.672;2023-05-31T12:55:03;3.15;;;2.00;;
76256;SDS011;65074;50.436;8.672;2023-05-31T12:57:30;3.20;;;1.92;;
76256;SDS011;65074;50.436;8.672;2023-05-31T12:59:59;2.38;;;1.90;;
76256;SDS011;65074;50.436;8.672;2023-05-31T13:02:36;3.50;;;1.95;;
76256;SDS011;65074;50.436;8.672;2023-05-31T13:05:05;3.03;;;1.83;;
76256;SDS011;65074;50.436;8.672;2023-05-31T13:07:32;3.20;;;2.15;;
76256;SDS011;65074;50.436;8.672;2023-05-31T13:09:58;2.17;;;1.58;;
76256;SDS011;65074;50.436;8.672;2023-05-31T13:12:23;2.60;;;1.60;;
76256;SDS011;65074;50.436;8.672;2023-05-31T13:14:48;3.60;;;1.60;;
76256;SDS011;65074;50.436;8.672;2023-05-31T13:17:17;2.97;;;2.15;;
76256;SDS011;65074;50.436;8.672;2023-05-31T13:19:42;4.03;;;1.83;;
76256;SDS011;65074;50.436;8.672;2023-05-31T13:22:08;3.33;;;1.33;;
76256;SDS011;65074;50.436;8.672;2023-05-31T13:24:33;3.03;;;2.08;;
76256;SDS011;65074;50.436;8.672;2023-05-31T13:26:59;2.53;;;1.80;;
76256;SDS011;65074;50.436;8.672;2023-05-31T13:29:25;2.88;;;1.80;;
76256;SDS011;65074;50.436;8.672;2023-05-31T13:31:51;6.00;;;2.28;;
76256;SDS011;65074;50.436;8.672;2023-05-31T13:34:16;3.30;;;1.98;;
76256;SDS011;65074;50.436;8.672;2023-05-31T13:36:43;3.65;;;1.77;;
76256;SDS011;65074;50.436;8.672;2023-05-31T13:39:08;3.90;;;1.90;;
76256;SDS011;65074;50.436;8.672;2023-05-31T13:41:39;5.03;;;2.00;;
76256;SDS011;65074;50.436;8.672;2023-05-31T13:44:06;3.30;;;1.73;;
76256;SDS011;65074;50.436;8.672;2023-05-31T13:46:31;3.25;;;2.08;;
76256;SDS011;65074;50.436;8.672;2023-05-31T13:48:57;6.25;;;2.10;;
76256;SDS011;65074;50.436;8.672;2023-05-31T13:51:22;6.05;;;2.35;;
76256;SDS011;65074;50.436;8.672;2023-05-31T13:53:47;3.17;;;1.83;;
76256;SDS011;65074;50.436;8.672;2023-05-31T13:56:13;4.05;;;1.85;;
76256;SDS011;65074;50.436;8.672;2023-05-31T13:58:38;2.28;;;1.70;;
76256;SDS011;65074;50.436;8.672;2023-05-31T14:01:04;3.58;;;2.10;;
76256;SDS011;65074;50.436;8.672;2023-05-31T14:03:32;2.38;;;1.92;;
76256;SDS011;65074;50.436;8.672;2023-05-31T14:05:57;5.22;;;1.98;;
76256;SDS011;65074;50.436;8.672;2023-05-31T14:08:22;2.63;;;1.63;;
76256;SDS011;65074;50.436;8.672;2023-05-31T14:10:48;3.75;;;2.20;;
76256;SDS011;65074;50.436;8.672;2023-05-31T14:13:13;4.28;;;2.00;;
76256;SDS011;65074;50.436;8.672;2023-05-31T14:15:39;2.58;;;1.58;;
76256;SDS011;65074;50.436;8.672;2023-05-31T14:18:05;3.08;;;1.63;;
76256;SDS011;65074;50.436;8.672;2023-05-31T14:20:31;2.70;;;1.60;;
76256;SDS011;65074;50.436;8.672;2023-05-31T14:22:56;6.38;;;1.65;;
76256;SDS011;65074;50.436;8.672;2023-05-31T14:25:22;2.60;;;2.10;;
76256;SDS011;65074;50.436;8.672;2023-05-31T14:27:47;2.95;;;2.08;;
76256;SDS011;65074;50.436;8.672;2023-05-31T14:30:12;1.75;;;1.65;;
76256;SDS011;65074;50.436;8.672;2023-05-31T14:32:38;3.45;;;1.92;;
76256;SDS011;65074;50.436;8.672;2023-05-31T14:35:04;2.47;;;1.65;;
76256;SDS011;65074;50.436;8.672;2023-05-31T14:37:31;3.08;;;1.70;;
76256;SDS011;65074;50.436;8.672;2023-05-31T14:39:57;2.15;;;1.67;;
76256;SDS011;65074;50.436;8.672;2023-05-31T14:42:22;3.70;;;1.80;;
76256;SDS011;65074;50.436;8.672;2023-05-31T14:44:48;3.22;;;1.90;;
76256;SDS011;65074;50.436;8.672;2023-05-31T14:47:15;3.47;;;1.70;;
76256;SDS011;65074;50.436;8.672;2023-05-31T14:49:41;4.90;;;2.00;;
76256;SDS011;65074;50.436;8.672;2023-05-31T14:52:07;5.85;;;1.90;;
76256;SDS011;65074;50.436;8.672;2023-05-31T14:54:33;3.33;;;2.15;;
76256;SDS011;65074;50.436;8.672;2023-05-31T14:56:58;2.03;;;1.40;;
76256;SDS011;65074;50.436;8.672;2023-05-31T14:59:24;2.38;;;1.45;;
76256;SDS011;65074;50.436;8.672;2023-05-31T15:01:53;2.55;;;1.75;;
76256;SDS011;65074;50.436;8.672;2023-05-31T15:04:19;4.60;;;1.60;;
76256;SDS011;65074;50.436;8.672;2023-05-31T15:06:44;3.72;;;1.88;;
76256;SDS011;65074;50.436;8.672;2023-05-31T15:09:10;3.85;;;2.00;;
76256;SDS011;65074;50.436;8.672;2023-05-31T15:11:36;2.83;;;1.85;;